MQC9204 HDAM-HAAB
Flight info
| Callsign | MQC9204 |
|---|---|
| Flight time | 0h 45m |
| Altitude | 32000 |
| Route | LAKBE1G LAKBE LAKBE1B |
| Aircraft | B77L/H-SDE1E2E3FGHIJ2J3J4J5M1RWXY/LB1D1 |
Departure
| Time | 2026-04-27 15:22 |
|---|---|
| Airport | Djibouti-Ambouli Airport (HDAM) |
Arrival
| Time | 2026-04-27 16:07 |
|---|---|
| Airport | Addis Ababa Bole International Airport (HAAB) |
| Time | Latitude | Longitude | Altitude | Speed | Heading |
|---|---|---|---|---|---|
| 2026-04-27 15:12 | 11.55101 | 43.14830 | 59 ft | 0 kts | 139° |
| 2026-04-27 15:19 | 11.55100 | 43.14831 | 59 ft | 1 kts | 139° |
| 2026-04-27 15:19 | 11.55081 | 43.14841 | 51 ft | 7 kts | 157° |
| 2026-04-27 15:20 | 11.55011 | 43.14797 | 52 ft | 19 kts | 260° |
| 2026-04-27 15:20 | 11.55010 | 43.14657 | 56 ft | 18 kts | 270° |
| 2026-04-27 15:20 | 11.54915 | 43.14609 | 57 ft | 17 kts | 181° |
| 2026-04-27 15:20 | 11.54795 | 43.14607 | 55 ft | 17 kts | 180° |
| 2026-04-27 15:21 | 11.54751 | 43.14720 | 60 ft | 28 kts | 91° |
| 2026-04-27 15:21 | 11.54746 | 43.15070 | 58 ft | 81 kts | 90° |
| 2026-04-27 15:21 | 11.54735 | 43.15875 | 50 ft | 144 kts | 90° |
| 2026-04-27 15:21 | 11.54708 | 43.17032 | 255 ft | 168 kts | 89° |
| 2026-04-27 15:22 | 11.54697 | 43.18249 | 724 ft | 172 kts | 90° |
| 2026-04-27 15:22 | 11.54599 | 43.19453 | 1235 ft | 175 kts | 112° |
| 2026-04-27 15:22 | 11.53741 | 43.20318 | 1554 ft | 187 kts | 159° |
| 2026-04-27 15:22 | 11.52416 | 43.20411 | 1931 ft | 197 kts | 191° |
| 2026-04-27 15:23 | 11.51178 | 43.19764 | 2368 ft | 208 kts | 224° |
| 2026-04-27 15:23 | 11.50274 | 43.18515 | 2580 ft | 233 kts | 237° |
| 2026-04-27 15:23 | 11.49422 | 43.16991 | 2745 ft | 261 kts | 239° |
| 2026-04-27 15:23 | 11.48532 | 43.15327 | 3262 ft | 272 kts | 239° |
| 2026-04-27 15:24 | 11.47612 | 43.13606 | 3934 ft | 278 kts | 239° |
| 2026-04-27 15:24 | 11.46682 | 43.11880 | 4752 ft | 279 kts | 240° |
| 2026-04-27 15:24 | 11.45735 | 43.10136 | 5473 ft | 283 kts | 240° |
| 2026-04-27 15:24 | 11.44768 | 43.08368 | 6211 ft | 287 kts | 240° |
| 2026-04-27 15:25 | 11.43782 | 43.06576 | 6906 ft | 290 kts | 240° |
| 2026-04-27 15:25 | 11.42782 | 43.04767 | 7582 ft | 296 kts | 240° |
| 2026-04-27 15:25 | 11.41772 | 43.02944 | 8233 ft | 300 kts | 240° |
| 2026-04-27 15:25 | 11.40742 | 43.01089 | 8967 ft | 303 kts | 240° |
| 2026-04-27 15:26 | 11.39717 | 42.99244 | 9662 ft | 301 kts | 240° |
| 2026-04-27 15:26 | 11.38664 | 42.97349 | 10080 ft | 313 kts | 240° |
| 2026-04-27 15:26 | 11.37552 | 42.95349 | 10267 ft | 337 kts | 240° |
| 2026-04-27 15:26 | 11.36356 | 42.93203 | 10460 ft | 359 kts | 240° |
| 2026-04-27 15:27 | 11.35085 | 42.90920 | 10703 ft | 379 kts | 240° |
| 2026-04-27 15:27 | 11.33767 | 42.88554 | 11246 ft | 389 kts | 240° |
| 2026-04-27 15:27 | 11.32421 | 42.86135 | 11968 ft | 395 kts | 240° |
| 2026-04-27 15:27 | 11.31186 | 42.83628 | 12855 ft | 397 kts | 245° |
| 2026-04-27 15:28 | 11.30112 | 42.81024 | 13680 ft | 401 kts | 248° |
| 2026-04-27 15:28 | 11.29087 | 42.78366 | 14328 ft | 406 kts | 249° |
| 2026-04-27 15:28 | 11.28054 | 42.75664 | 14986 ft | 412 kts | 248° |
| 2026-04-27 15:28 | 11.26999 | 42.72941 | 15729 ft | 414 kts | 248° |
| 2026-04-27 15:29 | 11.25924 | 42.70212 | 16458 ft | 417 kts | 248° |
| 2026-04-27 15:29 | 11.24824 | 42.67451 | 17033 ft | 424 kts | 248° |
| 2026-04-27 15:29 | 11.23703 | 42.64665 | 17730 ft | 426 kts | 248° |
| 2026-04-27 15:29 | 11.22570 | 42.61860 | 18368 ft | 430 kts | 248° |
| 2026-04-27 15:30 | 11.21427 | 42.59039 | 18915 ft | 433 kts | 248° |
| 2026-04-27 15:30 | 11.20271 | 42.56187 | 19403 ft | 439 kts | 248° |
| 2026-04-27 15:30 | 11.19103 | 42.53305 | 19968 ft | 442 kts | 248° |
| 2026-04-27 15:30 | 11.17926 | 42.50402 | 20514 ft | 445 kts | 248° |
| 2026-04-27 15:31 | 11.16737 | 42.47472 | 20963 ft | 451 kts | 248° |
| 2026-04-27 15:31 | 11.15535 | 42.44505 | 21495 ft | 454 kts | 247° |
| 2026-04-27 15:31 | 11.14329 | 42.41533 | 22089 ft | 456 kts | 247° |
| 2026-04-27 15:31 | 11.13114 | 42.38538 | 22584 ft | 460 kts | 247° |
| 2026-04-27 15:32 | 11.11884 | 42.35508 | 23016 ft | 465 kts | 247° |
| 2026-04-27 15:32 | 11.10643 | 42.32452 | 23495 ft | 468 kts | 247° |
| 2026-04-27 15:32 | 11.09395 | 42.29378 | 23866 ft | 472 kts | 247° |
| 2026-04-27 15:32 | 11.08135 | 42.26275 | 24306 ft | 474 kts | 248° |
| 2026-04-27 15:33 | 11.06874 | 42.23172 | 24800 ft | 474 kts | 248° |
| 2026-04-27 15:33 | 11.05627 | 42.20103 | 25189 ft | 478 kts | 248° |
| 2026-04-27 15:33 | 11.04349 | 42.16962 | 25567 ft | 481 kts | 247° |
| 2026-04-27 15:33 | 11.02899 | 42.13909 | 26061 ft | 480 kts | 240° |
| 2026-04-27 15:34 | 11.01137 | 42.11009 | 26445 ft | 483 kts | 237° |
| 2026-04-27 15:34 | 10.99257 | 42.08167 | 26798 ft | 487 kts | 236° |
| 2026-04-27 15:34 | 10.97332 | 42.05321 | 27235 ft | 489 kts | 236° |
| 2026-04-27 15:34 | 10.95405 | 42.02455 | 27508 ft | 494 kts | 236° |
| 2026-04-27 15:35 | 10.93485 | 41.99550 | 27944 ft | 495 kts | 237° |
| 2026-04-27 15:35 | 10.91579 | 41.96622 | 28369 ft | 497 kts | 237° |
| 2026-04-27 15:35 | 10.89681 | 41.93669 | 28730 ft | 500 kts | 237° |
| 2026-04-27 15:35 | 10.87780 | 41.90693 | 29184 ft | 501 kts | 237° |
| 2026-04-27 15:36 | 10.85880 | 41.87708 | 29501 ft | 505 kts | 237° |
| 2026-04-27 15:36 | 10.83965 | 41.84700 | 29882 ft | 506 kts | 237° |
| 2026-04-27 15:36 | 10.82062 | 41.81712 | 30436 ft | 502 kts | 238° |
| 2026-04-27 15:36 | 10.80162 | 41.78734 | 30901 ft | 501 kts | 238° |
| 2026-04-27 15:37 | 10.78270 | 41.75770 | 31446 ft | 498 kts | 238° |
| 2026-04-27 15:37 | 10.76385 | 41.72820 | 31791 ft | 497 kts | 238° |
| 2026-04-27 15:37 | 10.72623 | 41.66937 | 31775 ft | 496 kts | 238° |
| 2026-04-27 15:38 | 10.68857 | 41.61049 | 31783 ft | 498 kts | 238° |
| 2026-04-27 15:38 | 10.65067 | 41.55128 | 31784 ft | 501 kts | 238° |
| 2026-04-27 15:39 | 10.61263 | 41.49187 | 31782 ft | 501 kts | 238° |
| 2026-04-27 15:39 | 10.57465 | 41.43262 | 31781 ft | 500 kts | 238° |
| 2026-04-27 15:40 | 10.53674 | 41.37348 | 31780 ft | 499 kts | 238° |
| 2026-04-27 15:40 | 10.49916 | 41.31490 | 31779 ft | 497 kts | 238° |
| 2026-04-27 15:41 | 10.46146 | 41.25615 | 31780 ft | 496 kts | 237° |
| 2026-04-27 15:41 | 10.42379 | 41.19748 | 31782 ft | 496 kts | 237° |
| 2026-04-27 15:42 | 10.38610 | 41.13882 | 31783 ft | 496 kts | 237° |
| 2026-04-27 15:42 | 10.34840 | 41.08017 | 31787 ft | 496 kts | 237° |
| 2026-04-27 15:43 | 10.31065 | 41.02148 | 31783 ft | 496 kts | 237° |
| 2026-04-27 15:43 | 10.27290 | 40.96280 | 31783 ft | 496 kts | 237° |
| 2026-04-27 15:44 | 10.23512 | 40.90412 | 31783 ft | 497 kts | 237° |
| 2026-04-27 15:44 | 10.19732 | 40.84544 | 31784 ft | 497 kts | 237° |
| 2026-04-27 15:45 | 10.15949 | 40.78674 | 31792 ft | 497 kts | 237° |
| 2026-04-27 15:45 | 10.12160 | 40.72799 | 31794 ft | 497 kts | 237° |
| 2026-04-27 15:46 | 10.08379 | 40.66937 | 31812 ft | 497 kts | 237° |
| 2026-04-27 15:46 | 10.04595 | 40.61076 | 31817 ft | 497 kts | 237° |
| 2026-04-27 15:47 | 10.00808 | 40.55210 | 31823 ft | 497 kts | 237° |
| 2026-04-27 15:47 | 9.97023 | 40.49352 | 31839 ft | 497 kts | 237° |
| 2026-04-27 15:48 | 9.93233 | 40.43490 | 31852 ft | 496 kts | 237° |
| 2026-04-27 15:49 | 9.87554 | 40.34710 | 31874 ft | 496 kts | 237° |
| 2026-04-27 15:49 | 9.83769 | 40.28861 | 31890 ft | 496 kts | 237° |
| 2026-04-27 15:50 | 9.79985 | 40.23018 | 31897 ft | 492 kts | 237° |
| 2026-04-27 15:50 | 9.78127 | 40.20150 | 31912 ft | 481 kts | 237° |
| 2026-04-27 15:50 | 9.76918 | 40.18285 | 31746 ft | 477 kts | 237° |
| 2026-04-27 15:50 | 9.75103 | 40.15484 | 31248 ft | 473 kts | 237° |
| 2026-04-27 15:51 | 9.73303 | 40.12707 | 30787 ft | 470 kts | 237° |
| 2026-04-27 15:51 | 9.71516 | 40.09951 | 30348 ft | 466 kts | 237° |
| 2026-04-27 15:51 | 9.69741 | 40.07213 | 29835 ft | 464 kts | 237° |
| 2026-04-27 15:51 | 9.67976 | 40.04492 | 29282 ft | 461 kts | 236° |
| 2026-04-27 15:52 | 9.66221 | 40.01786 | 28802 ft | 457 kts | 236° |
| 2026-04-27 15:52 | 9.64479 | 39.99103 | 28311 ft | 454 kts | 236° |
| 2026-04-27 15:52 | 9.62752 | 39.96441 | 27830 ft | 450 kts | 236° |
| 2026-04-27 15:52 | 9.61035 | 39.93796 | 27403 ft | 447 kts | 236° |
| 2026-04-27 15:53 | 9.59330 | 39.91171 | 26920 ft | 444 kts | 236° |
| 2026-04-27 15:53 | 9.57636 | 39.88563 | 26464 ft | 442 kts | 236° |
| 2026-04-27 15:53 | 9.55954 | 39.85972 | 26000 ft | 439 kts | 236° |
| 2026-04-27 15:53 | 9.54278 | 39.83392 | 25574 ft | 437 kts | 236° |
| 2026-04-27 15:54 | 9.52609 | 39.80825 | 25107 ft | 435 kts | 236° |
| 2026-04-27 15:54 | 9.50970 | 39.78303 | 24638 ft | 434 kts | 236° |
| 2026-04-27 15:54 | 9.49314 | 39.75755 | 24230 ft | 433 kts | 236° |
| 2026-04-27 15:54 | 9.47661 | 39.73212 | 23777 ft | 431 kts | 236° |
| 2026-04-27 15:55 | 9.46012 | 39.70677 | 23256 ft | 430 kts | 235° |
| 2026-04-27 15:55 | 9.44371 | 39.68159 | 22780 ft | 427 kts | 235° |
| 2026-04-27 15:55 | 9.42725 | 39.65671 | 22358 ft | 424 kts | 235° |
| 2026-04-27 15:55 | 9.41082 | 39.63205 | 21913 ft | 421 kts | 234° |
| 2026-04-27 15:56 | 9.39448 | 39.60760 | 21468 ft | 418 kts | 235° |
| 2026-04-27 15:56 | 9.37827 | 39.58331 | 21039 ft | 415 kts | 235° |
| 2026-04-27 15:56 | 9.36212 | 39.55912 | 20631 ft | 413 kts | 236° |
| 2026-04-27 15:56 | 9.34608 | 39.53503 | 20199 ft | 411 kts | 235° |
| 2026-04-27 15:57 | 9.33014 | 39.51110 | 19741 ft | 409 kts | 236° |
| 2026-04-27 15:57 | 9.31425 | 39.48724 | 19345 ft | 408 kts | 236° |
| 2026-04-27 15:57 | 9.29841 | 39.46346 | 18900 ft | 406 kts | 236° |
| 2026-04-27 15:57 | 9.28266 | 39.43981 | 18458 ft | 405 kts | 236° |
| 2026-04-27 15:58 | 9.26694 | 39.41622 | 17967 ft | 403 kts | 236° |
| 2026-04-27 15:58 | 9.25130 | 39.39275 | 17540 ft | 401 kts | 236° |
| 2026-04-27 15:58 | 9.23575 | 39.36942 | 17087 ft | 399 kts | 237° |
| 2026-04-27 15:58 | 9.22030 | 39.34621 | 16657 ft | 397 kts | 237° |
| 2026-04-27 15:59 | 9.20495 | 39.32318 | 16333 ft | 391 kts | 237° |
| 2026-04-27 15:59 | 9.18998 | 39.30074 | 16219 ft | 379 kts | 237° |
| 2026-04-27 15:59 | 9.17547 | 39.27901 | 16115 ft | 366 kts | 238° |
| 2026-04-27 15:59 | 9.16180 | 39.25851 | 15936 ft | 338 kts | 238° |
| 2026-04-27 16:00 | 9.14959 | 39.23933 | 15764 ft | 311 kts | 239° |
| 2026-04-27 16:00 | 9.13850 | 39.22148 | 15536 ft | 288 kts | 240° |
| 2026-04-27 16:00 | 9.12820 | 39.20481 | 15205 ft | 273 kts | 240° |
| 2026-04-27 16:00 | 9.11827 | 39.18877 | 14692 ft | 266 kts | 241° |
| 2026-04-27 16:01 | 9.10849 | 39.17301 | 14288 ft | 263 kts | 241° |
| 2026-04-27 16:01 | 9.09869 | 39.15727 | 14052 ft | 267 kts | 240° |
| 2026-04-27 16:01 | 9.08892 | 39.14157 | 13727 ft | 266 kts | 239° |
| 2026-04-27 16:01 | 9.07906 | 39.12579 | 13380 ft | 263 kts | 240° |
| 2026-04-27 16:02 | 9.06938 | 39.11031 | 13093 ft | 257 kts | 241° |
| 2026-04-27 16:02 | 9.06196 | 39.09437 | 12779 ft | 245 kts | 256° |
| 2026-04-27 16:02 | 9.05763 | 39.07807 | 12559 ft | 239 kts | 257° |
| 2026-04-27 16:02 | 9.05364 | 39.06195 | 12247 ft | 233 kts | 258° |
| 2026-04-27 16:03 | 9.04962 | 39.04630 | 11982 ft | 227 kts | 256° |
| 2026-04-27 16:03 | 9.04555 | 39.03096 | 11713 ft | 225 kts | 256° |
| 2026-04-27 16:03 | 9.04142 | 39.01560 | 11486 ft | 228 kts | 256° |
| 2026-04-27 16:03 | 9.03716 | 38.99992 | 11224 ft | 234 kts | 256° |
| 2026-04-27 16:04 | 9.03274 | 38.98397 | 10973 ft | 236 kts | 255° |
| 2026-04-27 16:04 | 9.02810 | 38.96804 | 10677 ft | 235 kts | 255° |
| 2026-04-27 16:04 | 9.02349 | 38.95227 | 10408 ft | 233 kts | 254° |
| 2026-04-27 16:04 | 9.01897 | 38.93677 | 10133 ft | 226 kts | 253° |
| 2026-04-27 16:05 | 9.01463 | 38.92192 | 9840 ft | 217 kts | 254° |
| 2026-04-27 16:05 | 9.01046 | 38.90762 | 9568 ft | 206 kts | 254° |
| 2026-04-27 16:05 | 9.00646 | 38.89389 | 9309 ft | 203 kts | 253° |
| 2026-04-27 16:05 | 9.00237 | 38.87983 | 9008 ft | 209 kts | 251° |
| 2026-04-27 16:06 | 8.99838 | 38.86612 | 8737 ft | 198 kts | 251° |
| 2026-04-27 16:06 | 8.99463 | 38.85319 | 8468 ft | 185 kts | 251° |
| 2026-04-27 16:06 | 8.99107 | 38.84104 | 8185 ft | 176 kts | 253° |
| 2026-04-27 16:06 | 8.98767 | 38.82917 | 7976 ft | 177 kts | 252° |
| 2026-04-27 16:07 | 8.98421 | 38.81720 | 7776 ft | 178 kts | 251° |
| 2026-04-27 16:07 | 8.98066 | 38.80534 | 7641 ft | 170 kts | 251° |
| 2026-04-27 16:07 | 8.97776 | 38.79541 | 7639 ft | 121 kts | 254° |
| 2026-04-27 16:07 | 8.97604 | 38.78948 | 7635 ft | 44 kts | 254° |
| 2026-04-27 16:08 | 8.97625 | 38.78801 | 7635 ft | 18 kts | 346° |
| 2026-04-27 16:08 | 8.97746 | 38.78771 | 7635 ft | 17 kts | 345° |
| 2026-04-27 16:08 | 8.97842 | 38.78740 | 7635 ft | 13 kts | 329° |
| 2026-04-27 16:08 | 8.97851 | 38.78691 | 7635 ft | 7 kts | 251° |
| 2026-04-27 16:09 | 8.97835 | 38.78642 | 7635 ft | 7 kts | 252° |
| 2026-04-27 16:09 | 8.97808 | 38.78545 | 7635 ft | 7 kts | 254° |
| 2026-04-27 16:09 | 8.97794 | 38.78496 | 7635 ft | 7 kts | 253° |
| 2026-04-27 16:10 | 8.97722 | 38.78500 | 7635 ft | 5 kts | 163° |
| 2026-04-27 16:10 | 8.97712 | 38.78503 | 7635 ft | 0 kts | 163° |